sensor_id;sensor_type;location;lat;lon;timestamp;P1;durP1;ratioP1;P2;durP2;ratioP2
41077;SDS011;26823;42.662;23.352;2023-02-21T00:02:03;10.32;;;4.72;;
41077;SDS011;26823;42.662;23.352;2023-02-21T00:04:48;11.10;;;4.70;;
41077;SDS011;26823;42.662;23.352;2023-02-21T00:07:32;8.52;;;4.97;;
41077;SDS011;26823;42.662;23.352;2023-02-21T00:10:16;5.22;;;3.95;;
41077;SDS011;26823;42.662;23.352;2023-02-21T00:13:00;11.05;;;4.93;;
41077;SDS011;26823;42.662;23.352;2023-02-21T00:15:44;8.27;;;4.83;;
41077;SDS011;26823;42.662;23.352;2023-02-21T00:18:32;7.25;;;4.00;;
41077;SDS011;26823;42.662;23.352;2023-02-21T00:21:19;6.97;;;4.63;;
41077;SDS011;26823;42.662;23.352;2023-02-21T00:24:04;7.72;;;4.40;;
41077;SDS011;26823;42.662;23.352;2023-02-21T00:26:48;7.30;;;4.07;;
41077;SDS011;26823;42.662;23.352;2023-02-21T00:29:32;6.18;;;3.53;;
41077;SDS011;26823;42.662;23.352;2023-02-21T00:32:16;8.07;;;3.58;;
41077;SDS011;26823;42.662;23.352;2023-02-21T00:35:00;8.95;;;4.53;;
41077;SDS011;26823;42.662;23.352;2023-02-21T00:37:44;6.53;;;3.60;;
41077;SDS011;26823;42.662;23.352;2023-02-21T00:40:32;9.93;;;4.10;;
41077;SDS011;26823;42.662;23.352;2023-02-21T00:43:16;6.13;;;3.20;;
41077;SDS011;26823;42.662;23.352;2023-02-21T00:45:59;6.28;;;3.78;;
41077;SDS011;26823;42.662;23.352;2023-02-21T00:48:43;8.18;;;4.00;;
41077;SDS011;26823;42.662;23.352;2023-02-21T00:51:27;7.55;;;3.90;;
41077;SDS011;26823;42.662;23.352;2023-02-21T00:54:11;7.00;;;3.70;;
41077;SDS011;26823;42.662;23.352;2023-02-21T00:56:55;6.13;;;3.55;;
41077;SDS011;26823;42.662;23.352;2023-02-21T00:59:47;7.07;;;3.13;;
41077;SDS011;26823;42.662;23.352;2023-02-21T01:02:31;7.13;;;2.75;;
41077;SDS011;26823;42.662;23.352;2023-02-21T01:05:15;4.55;;;3.15;;
41077;SDS011;26823;42.662;23.352;2023-02-21T01:08:12;4.55;;;2.88;;
41077;SDS011;26823;42.662;23.352;2023-02-21T01:10:56;6.07;;;2.97;;
41077;SDS011;26823;42.662;23.352;2023-02-21T01:13:40;6.63;;;3.28;;
41077;SDS011;26823;42.662;23.352;2023-02-21T01:16:26;4.78;;;3.00;;
41077;SDS011;26823;42.662;23.352;2023-02-21T01:19:11;5.50;;;3.05;;
41077;SDS011;26823;42.662;23.352;2023-02-21T01:21:55;8.93;;;4.05;;
41077;SDS011;26823;42.662;23.352;2023-02-21T01:24:39;6.32;;;3.20;;
41077;SDS011;26823;42.662;23.352;2023-02-21T01:27:23;9.20;;;3.17;;
41077;SDS011;26823;42.662;23.352;2023-02-21T01:30:07;3.97;;;3.07;;
41077;SDS011;26823;42.662;23.352;2023-02-21T01:32:51;4.05;;;2.95;;
41077;SDS011;26823;42.662;23.352;2023-02-21T01:35:35;4.63;;;3.17;;
41077;SDS011;26823;42.662;23.352;2023-02-21T01:38:19;4.20;;;2.97;;
41077;SDS011;26823;42.662;23.352;2023-02-21T01:41:03;6.37;;;3.43;;
41077;SDS011;26823;42.662;23.352;2023-02-21T01:46:40;7.65;;;3.28;;
41077;SDS011;26823;42.662;23.352;2023-02-21T01:49:25;5.40;;;3.20;;
41077;SDS011;26823;42.662;23.352;2023-02-21T01:52:08;6.43;;;2.88;;
41077;SDS011;26823;42.662;23.352;2023-02-21T01:54:52;4.80;;;2.80;;
41077;SDS011;26823;42.662;23.352;2023-02-21T01:57:38;4.05;;;2.63;;
41077;SDS011;26823;42.662;23.352;2023-02-21T02:00:23;5.75;;;3.28;;
41077;SDS011;26823;42.662;23.352;2023-02-21T02:03:09;6.50;;;3.00;;
41077;SDS011;26823;42.662;23.352;2023-02-21T02:06:17;5.88;;;2.42;;
41077;SDS011;26823;42.662;23.352;2023-02-21T02:40:30;5.57;;;2.40;;
41077;SDS011;26823;42.662;23.352;2023-02-21T02:46:04;6.28;;;2.35;;
41077;SDS011;26823;42.662;23.352;2023-02-21T02:51:17;4.45;;;2.22;;
41077;SDS011;26823;42.662;23.352;2023-02-21T02:53:43;3.50;;;2.30;;
41077;SDS011;26823;42.662;23.352;2023-02-21T02:56:10;7.07;;;1.88;;
41077;SDS011;26823;42.662;23.352;2023-02-21T02:58:47;3.17;;;2.45;;
41077;SDS011;26823;42.662;23.352;2023-02-21T03:18:13;2.95;;;2.00;;
41077;SDS011;26823;42.662;23.352;2023-02-21T03:20:43;3.60;;;2.28;;
41077;SDS011;26823;42.662;23.352;2023-02-21T03:23:14;2.75;;;1.83;;
41077;SDS011;26823;42.662;23.352;2023-02-21T03:25:44;4.88;;;2.05;;
41077;SDS011;26823;42.662;23.352;2023-02-21T03:28:12;2.35;;;2.05;;
41077;SDS011;26823;42.662;23.352;2023-02-21T03:30:45;4.30;;;2.20;;
41077;SDS011;26823;42.662;23.352;2023-02-21T03:33:15;5.63;;;2.13;;
41077;SDS011;26823;42.662;23.352;2023-02-21T03:35:41;2.53;;;2.00;;
41077;SDS011;26823;42.662;23.352;2023-02-21T03:38:07;3.78;;;1.75;;
41077;SDS011;26823;42.662;23.352;2023-02-21T03:40:34;3.78;;;2.38;;
41077;SDS011;26823;42.662;23.352;2023-02-21T03:43:00;3.63;;;1.60;;
41077;SDS011;26823;42.662;23.352;2023-02-21T03:45:31;2.65;;;1.90;;
41077;SDS011;26823;42.662;23.352;2023-02-21T03:47:56;3.30;;;1.98;;
41077;SDS011;26823;42.662;23.352;2023-02-21T03:50:22;3.13;;;2.13;;
41077;SDS011;26823;42.662;23.352;2023-02-21T03:52:47;4.53;;;1.90;;
41077;SDS011;26823;42.662;23.352;2023-02-21T03:55:13;3.38;;;2.25;;
41077;SDS011;26823;42.662;23.352;2023-02-21T03:57:38;2.40;;;1.95;;
41077;SDS011;26823;42.662;23.352;2023-02-21T04:00:03;4.35;;;2.58;;
41077;SDS011;26823;42.662;23.352;2023-02-21T04:02:29;4.63;;;2.20;;
41077;SDS011;26823;42.662;23.352;2023-02-21T04:04:55;5.43;;;2.22;;
41077;SDS011;26823;42.662;23.352;2023-02-21T04:07:20;3.35;;;2.70;;
41077;SDS011;26823;42.662;23.352;2023-02-21T04:09:46;4.13;;;2.28;;
41077;SDS011;26823;42.662;23.352;2023-02-21T04:12:12;3.38;;;1.83;;
41077;SDS011;26823;42.662;23.352;2023-02-21T04:14:38;2.25;;;1.63;;
41077;SDS011;26823;42.662;23.352;2023-02-21T04:17:04;2.55;;;1.90;;
41077;SDS011;26823;42.662;23.352;2023-02-21T04:19:29;5.93;;;2.20;;
41077;SDS011;26823;42.662;23.352;2023-02-21T04:21:55;5.13;;;2.08;;
41077;SDS011;26823;42.662;23.352;2023-02-21T04:24:20;5.97;;;2.35;;
41077;SDS011;26823;42.662;23.352;2023-02-21T04:26:46;4.18;;;2.58;;
41077;SDS011;26823;42.662;23.352;2023-02-21T04:29:11;4.03;;;2.58;;
41077;SDS011;26823;42.662;23.352;2023-02-21T04:31:37;4.55;;;2.75;;
41077;SDS011;26823;42.662;23.352;2023-02-21T04:34:02;6.35;;;3.17;;
41077;SDS011;26823;42.662;23.352;2023-02-21T04:36:28;4.38;;;2.70;;
41077;SDS011;26823;42.662;23.352;2023-02-21T04:38:54;4.38;;;2.25;;
41077;SDS011;26823;42.662;23.352;2023-02-21T04:41:20;3.08;;;1.95;;
41077;SDS011;26823;42.662;23.352;2023-02-21T04:43:45;5.15;;;2.45;;
41077;SDS011;26823;42.662;23.352;2023-02-21T04:46:15;2.85;;;2.15;;
41077;SDS011;26823;42.662;23.352;2023-02-21T04:48:42;4.70;;;2.17;;
41077;SDS011;26823;42.662;23.352;2023-02-21T04:51:09;11.30;;;2.72;;
41077;SDS011;26823;42.662;23.352;2023-02-21T04:53:35;7.50;;;2.50;;
41077;SDS011;26823;42.662;23.352;2023-02-21T04:56:00;3.20;;;2.63;;
41077;SDS011;26823;42.662;23.352;2023-02-21T04:58:26;4.47;;;2.70;;
41077;SDS011;26823;42.662;23.352;2023-02-21T05:00:51;3.92;;;2.35;;
41077;SDS011;26823;42.662;23.352;2023-02-21T05:03:17;3.47;;;2.28;;
41077;SDS011;26823;42.662;23.352;2023-02-21T05:05:42;3.08;;;1.98;;
41077;SDS011;26823;42.662;23.352;2023-02-21T05:08:08;5.82;;;2.50;;
41077;SDS011;26823;42.662;23.352;2023-02-21T05:10:33;4.85;;;2.25;;
41077;SDS011;26823;42.662;23.352;2023-02-21T05:12:59;2.97;;;2.60;;
41077;SDS011;26823;42.662;23.352;2023-02-21T05:15:24;4.15;;;2.30;;
41077;SDS011;26823;42.662;23.352;2023-02-21T05:17:50;4.93;;;2.70;;
41077;SDS011;26823;42.662;23.352;2023-02-21T05:20:15;2.67;;;1.92;;
41077;SDS011;26823;42.662;23.352;2023-02-21T05:22:43;6.70;;;3.00;;
41077;SDS011;26823;42.662;23.352;2023-02-21T05:25:19;4.40;;;2.20;;
41077;SDS011;26823;42.662;23.352;2023-02-21T05:27:46;4.88;;;2.25;;
41077;SDS011;26823;42.662;23.352;2023-02-21T05:30:13;4.13;;;2.50;;
41077;SDS011;26823;42.662;23.352;2023-02-21T05:32:40;8.15;;;2.58;;
41077;SDS011;26823;42.662;23.352;2023-02-21T05:35:06;7.57;;;3.53;;
41077;SDS011;26823;42.662;23.352;2023-02-21T05:37:32;12.85;;;2.92;;
41077;SDS011;26823;42.662;23.352;2023-02-21T05:39:57;4.18;;;2.97;;
41077;SDS011;26823;42.662;23.352;2023-02-21T05:42:23;6.63;;;3.47;;
41077;SDS011;26823;42.662;23.352;2023-02-21T05:44:48;5.10;;;3.10;;
41077;SDS011;26823;42.662;23.352;2023-02-21T05:47:14;6.70;;;3.40;;
41077;SDS011;26823;42.662;23.352;2023-02-21T05:49:40;5.78;;;3.33;;
41077;SDS011;26823;42.662;23.352;2023-02-21T05:52:06;5.35;;;2.95;;
41077;SDS011;26823;42.662;23.352;2023-02-21T05:54:35;6.30;;;3.30;;
41077;SDS011;26823;42.662;23.352;2023-02-21T05:57:01;3.80;;;3.08;;
41077;SDS011;26823;42.662;23.352;2023-02-21T05:59:26;4.82;;;2.45;;
41077;SDS011;26823;42.662;23.352;2023-02-21T06:01:52;6.85;;;3.78;;
41077;SDS011;26823;42.662;23.352;2023-02-21T06:04:17;9.63;;;3.03;;
41077;SDS011;26823;42.662;23.352;2023-02-21T06:06:43;5.70;;;4.10;;
41077;SDS011;26823;42.662;23.352;2023-02-21T06:09:09;8.68;;;2.95;;
41077;SDS011;26823;42.662;23.352;2023-02-21T06:11:35;6.20;;;3.00;;
41077;SDS011;26823;42.662;23.352;2023-02-21T06:14:04;6.88;;;3.75;;
41077;SDS011;26823;42.662;23.352;2023-02-21T06:16:35;11.52;;;3.10;;
41077;SDS011;26823;42.662;23.352;2023-02-21T06:19:02;6.60;;;3.58;;
41077;SDS011;26823;42.662;23.352;2023-02-21T06:21:29;6.05;;;2.85;;
41077;SDS011;26823;42.662;23.352;2023-02-21T06:23:54;10.70;;;3.78;;
41077;SDS011;26823;42.662;23.352;2023-02-21T06:26:21;5.53;;;3.33;;
41077;SDS011;26823;42.662;23.352;2023-02-21T06:28:47;4.97;;;2.72;;
41077;SDS011;26823;42.662;23.352;2023-02-21T06:31:13;5.45;;;3.22;;
41077;SDS011;26823;42.662;23.352;2023-02-21T06:33:39;6.85;;;3.17;;
41077;SDS011;26823;42.662;23.352;2023-02-21T06:36:05;8.05;;;3.40;;
41077;SDS011;26823;42.662;23.352;2023-02-21T06:38:32;5.72;;;2.85;;
41077;SDS011;26823;42.662;23.352;2023-02-21T06:40:59;7.00;;;3.03;;
41077;SDS011;26823;42.662;23.352;2023-02-21T06:43:25;5.90;;;3.35;;
41077;SDS011;26823;42.662;23.352;2023-02-21T06:45:51;14.00;;;3.20;;
41077;SDS011;26823;42.662;23.352;2023-02-21T06:48:16;4.25;;;2.97;;
41077;SDS011;26823;42.662;23.352;2023-02-21T06:50:42;9.05;;;3.30;;
41077;SDS011;26823;42.662;23.352;2023-02-21T06:53:07;6.45;;;3.30;;
41077;SDS011;26823;42.662;23.352;2023-02-21T06:55:33;8.38;;;3.42;;
41077;SDS011;26823;42.662;23.352;2023-02-21T06:57:58;6.00;;;3.15;;
41077;SDS011;26823;42.662;23.352;2023-02-21T07:00:24;6.93;;;2.90;;
41077;SDS011;26823;42.662;23.352;2023-02-21T07:02:50;12.73;;;4.00;;
41077;SDS011;26823;42.662;23.352;2023-02-21T07:05:16;5.70;;;3.05;;
41077;SDS011;26823;42.662;23.352;2023-02-21T07:07:42;9.98;;;3.03;;
41077;SDS011;26823;42.662;23.352;2023-02-21T07:10:07;7.50;;;3.80;;
41077;SDS011;26823;42.662;23.352;2023-02-21T07:12:33;10.23;;;3.85;;
41077;SDS011;26823;42.662;23.352;2023-02-21T07:14:58;7.13;;;3.60;;
41077;SDS011;26823;42.662;23.352;2023-02-21T07:17:24;4.75;;;2.78;;
41077;SDS011;26823;42.662;23.352;2023-02-21T07:19:49;6.35;;;3.58;;
41077;SDS011;26823;42.662;23.352;2023-02-21T07:22:15;10.98;;;3.88;;
41077;SDS011;26823;42.662;23.352;2023-02-21T07:24:40;8.07;;;3.83;;
41077;SDS011;26823;42.662;23.352;2023-02-21T07:27:06;12.18;;;4.07;;
41077;SDS011;26823;42.662;23.352;2023-02-21T07:29:31;9.48;;;4.90;;
41077;SDS011;26823;42.662;23.352;2023-02-21T07:31:57;10.02;;;4.45;;
41077;SDS011;26823;42.662;23.352;2023-02-21T07:34:22;10.93;;;3.72;;
41077;SDS011;26823;42.662;23.352;2023-02-21T07:36:48;8.93;;;3.80;;
41077;SDS011;26823;42.662;23.352;2023-02-21T07:39:14;11.63;;;4.15;;
41077;SDS011;26823;42.662;23.352;2023-02-21T07:41:40;5.72;;;3.92;;
41077;SDS011;26823;42.662;23.352;2023-02-21T07:44:05;7.00;;;4.15;;
41077;SDS011;26823;42.662;23.352;2023-02-21T07:46:32;10.73;;;4.65;;
41077;SDS011;26823;42.662;23.352;2023-02-21T07:48:58;9.55;;;3.88;;
41077;SDS011;26823;42.662;23.352;2023-02-21T07:51:27;9.20;;;4.35;;
41077;SDS011;26823;42.662;23.352;2023-02-21T07:53:54;13.43;;;4.22;;
41077;SDS011;26823;42.662;23.352;2023-02-21T07:56:19;10.32;;;4.30;;
41077;SDS011;26823;42.662;23.352;2023-02-21T07:58:45;9.55;;;4.78;;
41077;SDS011;26823;42.662;23.352;2023-02-21T08:01:11;8.45;;;4.15;;
41077;SDS011;26823;42.662;23.352;2023-02-21T08:03:36;10.20;;;5.38;;
41077;SDS011;26823;42.662;23.352;2023-02-21T08:06:02;9.55;;;4.80;;
41077;SDS011;26823;42.662;23.352;2023-02-21T08:08:28;8.80;;;4.90;;
41077;SDS011;26823;42.662;23.352;2023-02-21T08:10:54;10.95;;;4.40;;
41077;SDS011;26823;42.662;23.352;2023-02-21T08:13:19;11.23;;;4.55;;
41077;SDS011;26823;42.662;23.352;2023-02-21T08:15:45;9.10;;;5.32;;
41077;SDS011;26823;42.662;23.352;2023-02-21T08:18:14;10.68;;;4.57;;
41077;SDS011;26823;42.662;23.352;2023-02-21T08:20:44;14.05;;;4.80;;
41077;SDS011;26823;42.662;23.352;2023-02-21T08:23:10;6.25;;;4.28;;
41077;SDS011;26823;42.662;23.352;2023-02-21T08:25:36;8.18;;;4.70;;
41077;SDS011;26823;42.662;23.352;2023-02-21T08:28:01;7.30;;;4.57;;
41077;SDS011;26823;42.662;23.352;2023-02-21T08:30:27;15.57;;;5.30;;
41077;SDS011;26823;42.662;23.352;2023-02-21T08:32:53;10.82;;;5.32;;
41077;SDS011;26823;42.662;23.352;2023-02-21T08:35:18;9.60;;;5.13;;
41077;SDS011;26823;42.662;23.352;2023-02-21T08:37:45;8.07;;;5.00;;
41077;SDS011;26823;42.662;23.352;2023-02-21T08:40:12;12.60;;;5.32;;
41077;SDS011;26823;42.662;23.352;2023-02-21T08:42:38;9.45;;;5.07;;
41077;SDS011;26823;42.662;23.352;2023-02-21T08:45:04;13.18;;;5.38;;
41077;SDS011;26823;42.662;23.352;2023-02-21T08:47:32;11.27;;;5.45;;
41077;SDS011;26823;42.662;23.352;2023-02-21T08:49:59;12.68;;;5.22;;
41077;SDS011;26823;42.662;23.352;2023-02-21T08:52:24;15.23;;;5.55;;
41077;SDS011;26823;42.662;23.352;2023-02-21T08:54:49;8.75;;;5.18;;
41077;SDS011;26823;42.662;23.352;2023-02-21T08:57:15;13.73;;;4.90;;
41077;SDS011;26823;42.662;23.352;2023-02-21T08:59:41;11.35;;;4.18;;
41077;SDS011;26823;42.662;23.352;2023-02-21T09:02:19;9.27;;;3.45;;
41077;SDS011;26823;42.662;23.352;2023-02-21T09:04:46;9.02;;;4.05;;
41077;SDS011;26823;42.662;23.352;2023-02-21T09:07:12;6.57;;;3.80;;
41077;SDS011;26823;42.662;23.352;2023-02-21T09:09:39;3.95;;;2.92;;
41077;SDS011;26823;42.662;23.352;2023-02-21T09:12:04;6.30;;;3.58;;
41077;SDS011;26823;42.662;23.352;2023-02-21T09:14:36;7.25;;;4.22;;
41077;SDS011;26823;42.662;23.352;2023-02-21T09:17:04;8.23;;;4.07;;
41077;SDS011;26823;42.662;23.352;2023-02-21T09:19:32;7.47;;;3.67;;
41077;SDS011;26823;42.662;23.352;2023-02-21T09:21:58;9.75;;;4.50;;
41077;SDS011;26823;42.662;23.352;2023-02-21T09:24:24;11.55;;;5.03;;
41077;SDS011;26823;42.662;23.352;2023-02-21T09:26:55;11.60;;;4.78;;
41077;SDS011;26823;42.662;23.352;2023-02-21T09:29:31;9.48;;;3.65;;
41077;SDS011;26823;42.662;23.352;2023-02-21T09:31:58;8.75;;;4.13;;
41077;SDS011;26823;42.662;23.352;2023-02-21T09:34:25;7.85;;;4.05;;
41077;SDS011;26823;42.662;23.352;2023-02-21T09:36:50;6.95;;;3.67;;
41077;SDS011;26823;42.662;23.352;2023-02-21T09:39:16;13.93;;;4.07;;
41077;SDS011;26823;42.662;23.352;2023-02-21T09:41:42;5.72;;;4.00;;
41077;SDS011;26823;42.662;23.352;2023-02-21T09:44:09;8.13;;;3.60;;
41077;SDS011;26823;42.662;23.352;2023-02-21T09:46:45;5.75;;;3.50;;
41077;SDS011;26823;42.662;23.352;2023-02-21T09:49:20;6.40;;;3.40;;
41077;SDS011;26823;42.662;23.352;2023-02-21T09:51:49;11.50;;;3.45;;
41077;SDS011;26823;42.662;23.352;2023-02-21T09:56:49;11.18;;;4.53;;
41077;SDS011;26823;42.662;23.352;2023-02-21T09:59:15;4.60;;;3.53;;
41077;SDS011;26823;42.662;23.352;2023-02-21T10:10:12;9.88;;;3.15;;
41077;SDS011;26823;42.662;23.352;2023-02-21T10:15:24;9.13;;;3.80;;
41077;SDS011;26823;42.662;23.352;2023-02-21T10:20:48;5.93;;;3.17;;
41077;SDS011;26823;42.662;23.352;2023-02-21T10:23:18;9.73;;;3.83;;
41077;SDS011;26823;42.662;23.352;2023-02-21T10:26:11;6.15;;;3.35;;
41077;SDS011;26823;42.662;23.352;2023-02-21T10:28:57;7.00;;;3.13;;
41077;SDS011;26823;42.662;23.352;2023-02-21T10:33:55;8.60;;;3.55;;
41077;SDS011;26823;42.662;23.352;2023-02-21T10:36:21;5.80;;;3.55;;
41077;SDS011;26823;42.662;23.352;2023-02-21T10:39:05;9.68;;;3.45;;
41077;SDS011;26823;42.662;23.352;2023-02-21T10:41:38;8.30;;;3.78;;
41077;SDS011;26823;42.662;23.352;2023-02-21T10:44:09;5.60;;;3.75;;
41077;SDS011;26823;42.662;23.352;2023-02-21T10:46:54;5.95;;;2.95;;
41077;SDS011;26823;42.662;23.352;2023-02-21T10:49:30;4.30;;;3.42;;
41077;SDS011;26823;42.662;23.352;2023-02-21T10:52:06;7.45;;;2.97;;
41077;SDS011;26823;42.662;23.352;2023-02-21T10:54:35;6.18;;;3.13;;
41077;SDS011;26823;42.662;23.352;2023-02-21T10:57:01;7.00;;;3.47;;
41077;SDS011;26823;42.662;23.352;2023-02-21T10:59:30;2.70;;;2.20;;
41077;SDS011;26823;42.662;23.352;2023-02-21T11:01:58;1.50;;;1.10;;
41077;SDS011;26823;42.662;23.352;2023-02-21T11:04:27;3.42;;;1.50;;
41077;SDS011;26823;42.662;23.352;2023-02-21T11:07:07;4.40;;;1.42;;
41077;SDS011;26823;42.662;23.352;2023-02-21T11:17:24;0.98;;;0.90;;
41077;SDS011;26823;42.662;23.352;2023-02-21T11:20:09;2.25;;;0.90;;
41077;SDS011;26823;42.662;23.352;2023-02-21T11:22:48;1.58;;;1.20;;
41077;SDS011;26823;42.662;23.352;2023-02-21T11:25:22;1.58;;;1.02;;
41077;SDS011;26823;42.662;23.352;2023-02-21T11:27:58;3.70;;;1.38;;
41077;SDS011;26823;42.662;23.352;2023-02-21T11:30:42;4.47;;;2.55;;
41077;SDS011;26823;42.662;23.352;2023-02-21T11:33:19;2.47;;;1.00;;
41077;SDS011;26823;42.662;23.352;2023-02-21T11:35:46;1.98;;;1.38;;
41077;SDS011;26823;42.662;23.352;2023-02-21T11:41:03;3.28;;;1.10;;
41077;SDS011;26823;42.662;23.352;2023-02-21T11:43:50;1.13;;;0.90;;
41077;SDS011;26823;42.662;23.352;2023-02-21T11:51:48;2.85;;;0.90;;
41077;SDS011;26823;42.662;23.352;2023-02-21T11:54:15;0.95;;;0.80;;
41077;SDS011;26823;42.662;23.352;2023-02-21T12:07:20;3.53;;;1.30;;
41077;SDS011;26823;42.662;23.352;2023-02-21T12:12:58;3.58;;;1.08;;
41077;SDS011;26823;42.662;23.352;2023-02-21T12:27:25;1.42;;;1.10;;
41077;SDS011;26823;42.662;23.352;2023-02-21T12:29:49;1.50;;;1.23;;
41077;SDS011;26823;42.662;23.352;2023-02-21T12:38:06;2.10;;;1.08;;
41077;SDS011;26823;42.662;23.352;2023-02-21T12:51:36;3.13;;;1.15;;
41077;SDS011;26823;42.662;23.352;2023-02-21T12:54:07;1.42;;;1.30;;
41077;SDS011;26823;42.662;23.352;2023-02-21T12:59:21;1.35;;;0.93;;
41077;SDS011;26823;42.662;23.352;2023-02-21T13:02:00;7.90;;;1.30;;
41077;SDS011;26823;42.662;23.352;2023-02-21T13:07:24;0.80;;;0.70;;
41077;SDS011;26823;42.662;23.352;2023-02-21T13:10:00;2.03;;;1.27;;
41077;SDS011;26823;42.662;23.352;2023-02-21T13:12:39;1.52;;;1.25;;
41077;SDS011;26823;42.662;23.352;2023-02-21T13:15:20;2.55;;;1.00;;
41077;SDS011;26823;42.662;23.352;2023-02-21T13:17:49;1.33;;;1.00;;
41077;SDS011;26823;42.662;23.352;2023-02-21T13:20:22;1.10;;;0.90;;
41077;SDS011;26823;42.662;23.352;2023-02-21T13:28:38;1.52;;;1.15;;
41077;SDS011;26823;42.662;23.352;2023-02-21T13:31:24;1.30;;;1.13;;
41077;SDS011;26823;42.662;23.352;2023-02-21T13:33:56;3.03;;;1.00;;
41077;SDS011;26823;42.662;23.352;2023-02-21T13:41:48;1.83;;;0.90;;
41077;SDS011;26823;42.662;23.352;2023-02-21T13:44:24;1.02;;;0.90;;
41077;SDS011;26823;42.662;23.352;2023-02-21T13:49:55;1.80;;;1.17;;
41077;SDS011;26823;42.662;23.352;2023-02-21T13:52:27;1.73;;;0.95;;
41077;SDS011;26823;42.662;23.352;2023-02-21T14:02:57;1.17;;;0.95;;
41077;SDS011;26823;42.662;23.352;2023-02-21T14:13:06;2.45;;;1.50;;
41077;SDS011;26823;42.662;23.352;2023-02-21T14:15:44;1.38;;;1.00;;
41077;SDS011;26823;42.662;23.352;2023-02-21T14:18:21;1.98;;;1.10;;
41077;SDS011;26823;42.662;23.352;2023-02-21T14:20:52;2.25;;;1.00;;
41077;SDS011;26823;42.662;23.352;2023-02-21T14:23:20;2.13;;;1.23;;
41077;SDS011;26823;42.662;23.352;2023-02-21T14:25:55;1.17;;;1.02;;
41077;SDS011;26823;42.662;23.352;2023-02-21T14:31:45;5.05;;;1.20;;
41077;SDS011;26823;42.662;23.352;2023-02-21T14:34:22;1.83;;;1.10;;
41077;SDS011;26823;42.662;23.352;2023-02-21T14:37:16;1.48;;;1.15;;
41077;SDS011;26823;42.662;23.352;2023-02-21T14:53:35;3.40;;;1.10;;
41077;SDS011;26823;42.662;23.352;2023-02-21T15:06:52;3.38;;;1.40;;
41077;SDS011;26823;42.662;23.352;2023-02-21T15:09:22;5.03;;;1.55;;
41077;SDS011;26823;42.662;23.352;2023-02-21T15:11:47;4.95;;;1.67;;
41077;SDS011;26823;42.662;23.352;2023-02-21T15:16:47;1.08;;;0.98;;
41077;SDS011;26823;42.662;23.352;2023-02-21T15:19:20;2.00;;;1.70;;
41077;SDS011;26823;42.662;23.352;2023-02-21T15:21:46;3.85;;;1.65;;
41077;SDS011;26823;42.662;23.352;2023-02-21T15:24:13;2.63;;;1.17;;
41077;SDS011;26823;42.662;23.352;2023-02-21T15:26:40;3.88;;;1.85;;
41077;SDS011;26823;42.662;23.352;2023-02-21T15:29:13;4.20;;;1.52;;
41077;SDS011;26823;42.662;23.352;2023-02-21T15:34:18;2.70;;;1.60;;
41077;SDS011;26823;42.662;23.352;2023-02-21T15:36:46;7.15;;;1.83;;
41077;SDS011;26823;42.662;23.352;2023-02-21T15:39:29;4.15;;;1.60;;
41077;SDS011;26823;42.662;23.352;2023-02-21T15:42:02;3.97;;;1.60;;
41077;SDS011;26823;42.662;23.352;2023-02-21T15:44:32;6.05;;;2.03;;
41077;SDS011;26823;42.662;23.352;2023-02-21T15:47:08;2.97;;;2.00;;
41077;SDS011;26823;42.662;23.352;2023-02-21T15:49:35;3.80;;;1.67;;
41077;SDS011;26823;42.662;23.352;2023-02-21T15:52:05;4.35;;;1.90;;
41077;SDS011;26823;42.662;23.352;2023-02-21T15:54:31;6.10;;;2.10;;
41077;SDS011;26823;42.662;23.352;2023-02-21T15:59:44;2.90;;;1.90;;
41077;SDS011;26823;42.662;23.352;2023-02-21T16:02:16;3.15;;;2.00;;
41077;SDS011;26823;42.662;23.352;2023-02-21T16:04:47;6.50;;;1.90;;
41077;SDS011;26823;42.662;23.352;2023-02-21T16:07:27;2.33;;;1.88;;
41077;SDS011;26823;42.662;23.352;2023-02-21T16:10:00;6.25;;;2.17;;
41077;SDS011;26823;42.662;23.352;2023-02-21T16:12:30;7.53;;;2.45;;
41077;SDS011;26823;42.662;23.352;2023-02-21T16:17:38;3.63;;;2.45;;
41077;SDS011;26823;42.662;23.352;2023-02-21T16:20:15;4.28;;;2.55;;
41077;SDS011;26823;42.662;23.352;2023-02-21T16:22:44;4.35;;;2.40;;
41077;SDS011;26823;42.662;23.352;2023-02-21T16:27:45;7.63;;;3.42;;
41077;SDS011;26823;42.662;23.352;2023-02-21T16:30:25;6.20;;;2.50;;
41077;SDS011;26823;42.662;23.352;2023-02-21T16:32:52;6.93;;;2.20;;
41077;SDS011;26823;42.662;23.352;2023-02-21T16:35:23;3.28;;;2.03;;
41077;SDS011;26823;42.662;23.352;2023-02-21T16:37:51;6.22;;;2.53;;
41077;SDS011;26823;42.662;23.352;2023-02-21T16:40:22;4.88;;;2.55;;
41077;SDS011;26823;42.662;23.352;2023-02-21T16:42:58;5.07;;;2.58;;
41077;SDS011;26823;42.662;23.352;2023-02-21T16:45:26;5.10;;;2.38;;
41077;SDS011;26823;42.662;23.352;2023-02-21T16:48:03;10.43;;;2.80;;
41077;SDS011;26823;42.662;23.352;2023-02-21T16:50:31;4.95;;;2.95;;
41077;SDS011;26823;42.662;23.352;2023-02-21T16:52:58;4.13;;;2.75;;
41077;SDS011;26823;42.662;23.352;2023-02-21T16:55:24;5.57;;;2.72;;
41077;SDS011;26823;42.662;23.352;2023-02-21T16:57:52;6.82;;;3.38;;
41077;SDS011;26823;42.662;23.352;2023-02-21T17:00:20;10.85;;;4.53;;
41077;SDS011;26823;42.662;23.352;2023-02-21T17:02:49;17.02;;;6.35;;
41077;SDS011;26823;42.662;23.352;2023-02-21T17:05:16;11.95;;;6.03;;
41077;SDS011;26823;42.662;23.352;2023-02-21T17:07:45;15.20;;;5.93;;
41077;SDS011;26823;42.662;23.352;2023-02-21T17:10:11;13.85;;;6.47;;
41077;SDS011;26823;42.662;23.352;2023-02-21T17:12:38;14.77;;;6.55;;
41077;SDS011;26823;42.662;23.352;2023-02-21T17:15:04;15.48;;;7.15;;
41077;SDS011;26823;42.662;23.352;2023-02-21T17:17:31;14.35;;;6.53;;
41077;SDS011;26823;42.662;23.352;2023-02-21T17:19:56;12.95;;;7.18;;
41077;SDS011;26823;42.662;23.352;2023-02-21T17:22:22;19.25;;;7.80;;
41077;SDS011;26823;42.662;23.352;2023-02-21T17:24:47;13.10;;;6.13;;
41077;SDS011;26823;42.662;23.352;2023-02-21T17:27:13;10.90;;;5.43;;
41077;SDS011;26823;42.662;23.352;2023-02-21T17:29:38;13.15;;;6.97;;
41077;SDS011;26823;42.662;23.352;2023-02-21T17:32:04;13.57;;;6.55;;
41077;SDS011;26823;42.662;23.352;2023-02-21T17:34:34;11.90;;;6.55;;
41077;SDS011;26823;42.662;23.352;2023-02-21T17:37:01;13.45;;;6.00;;
41077;SDS011;26823;42.662;23.352;2023-02-21T17:39:27;10.65;;;6.50;;
41077;SDS011;26823;42.662;23.352;2023-02-21T17:41:53;11.95;;;5.38;;
41077;SDS011;26823;42.662;23.352;2023-02-21T17:44:19;12.93;;;6.55;;
41077;SDS011;26823;42.662;23.352;2023-02-21T17:46:48;10.00;;;6.20;;
41077;SDS011;26823;42.662;23.352;2023-02-21T17:49:19;11.63;;;7.25;;
41077;SDS011;26823;42.662;23.352;2023-02-21T17:51:49;21.50;;;8.23;;
41077;SDS011;26823;42.662;23.352;2023-02-21T17:54:17;12.95;;;7.10;;
41077;SDS011;26823;42.662;23.352;2023-02-21T17:56:44;19.38;;;7.90;;
41077;SDS011;26823;42.662;23.352;2023-02-21T17:59:11;19.70;;;8.80;;
41077;SDS011;26823;42.662;23.352;2023-02-21T18:01:36;16.27;;;8.65;;
41077;SDS011;26823;42.662;23.352;2023-02-21T18:04:02;23.08;;;8.95;;
41077;SDS011;26823;42.662;23.352;2023-02-21T18:06:28;19.50;;;9.10;;
41077;SDS011;26823;42.662;23.352;2023-02-21T18:08:56;22.70;;;8.43;;
41077;SDS011;26823;42.662;23.352;2023-02-21T18:11:22;15.07;;;7.15;;
41077;SDS011;26823;42.662;23.352;2023-02-21T18:13:48;17.20;;;7.63;;
41077;SDS011;26823;42.662;23.352;2023-02-21T18:16:15;22.77;;;7.65;;
41077;SDS011;26823;42.662;23.352;2023-02-21T18:18:40;16.95;;;7.50;;
41077;SDS011;26823;42.662;23.352;2023-02-21T18:21:06;16.27;;;7.05;;
41077;SDS011;26823;42.662;23.352;2023-02-21T18:23:33;14.77;;;7.82;;